createdAt,value
2023-03-10T00:05:21.162Z,10.57
2023-03-10T00:10:31.856Z,13.65
2023-03-10T00:15:44.819Z,14.10
2023-03-10T00:21:03.743Z,12.55
2023-03-10T00:26:42.647Z,11.51
2023-03-10T00:32:18.545Z,10.89
2023-03-10T00:37:42.792Z,10.41
2023-03-10T00:43:08.594Z,10.04
2023-03-10T00:48:28.880Z,9.72
2023-03-10T00:54:08.024Z,9.48
2023-03-10T01:07:26.172Z,13.33
2023-03-10T01:13:01.538Z,13.79
2023-03-10T01:18:05.902Z,12.21
2023-03-10T01:23:23.957Z,11.34
2023-03-10T01:28:27.456Z,10.64
2023-03-10T01:33:30.780Z,10.15
2023-03-10T01:38:36.195Z,9.80
2023-03-10T01:43:41.892Z,9.47
2023-03-10T01:48:45.473Z,9.18
2023-03-10T01:53:48.705Z,8.90
2023-03-10T01:58:53.021Z,8.66
2023-03-10T02:04:02.165Z,9.67
2023-03-10T02:09:06.065Z,12.73
2023-03-10T02:14:09.441Z,13.57
2023-03-10T02:19:28.663Z,12.01
2023-03-10T02:25:10.261Z,10.97
2023-03-10T02:30:24.996Z,10.25
2023-03-10T02:35:28.600Z,9.72
2023-03-10T02:40:45.963Z,9.31
2023-03-10T02:45:54.150Z,8.91
2023-03-10T02:51:00.454Z,8.60
2023-03-10T02:56:03.965Z,8.36
2023-03-10T03:01:08.606Z,9.38
2023-03-10T03:06:15.356Z,12.63
2023-03-10T03:11:20.371Z,13.68
2023-03-10T03:16:24.125Z,12.23
2023-03-10T03:21:31.112Z,11.16
2023-03-10T03:26:35.248Z,10.39
2023-03-10T03:31:48.837Z,9.77
2023-03-10T03:36:58.259Z,9.28
2023-03-10T03:42:06.017Z,8.86
2023-03-10T03:47:17.156Z,8.50
2023-03-10T03:52:20.789Z,8.22
2023-03-10T03:57:24.444Z,8.97
2023-03-10T04:02:28.950Z,11.99
2023-03-10T04:07:32.722Z,12.87
2023-03-10T04:12:36.083Z,11.37
2023-03-10T04:17:39.677Z,10.39
2023-03-10T04:22:43.329Z,9.72
2023-03-10T04:27:46.805Z,9.24
2023-03-10T04:32:50.353Z,8.88
2023-03-10T04:37:54.296Z,8.57
2023-03-10T04:43:00.167Z,8.34
2023-03-10T04:48:04.087Z,8.17
2023-03-10T04:53:07.155Z,9.19
2023-03-10T04:58:10.201Z,12.19
2023-03-10T05:03:14.034Z,12.87
2023-03-10T05:08:17.721Z,11.25
2023-03-10T05:13:20.863Z,10.19
2023-03-10T05:18:24.158Z,9.47
2023-03-10T05:23:27.998Z,8.91
2023-03-10T05:28:32.125Z,8.45
2023-03-10T05:33:35.624Z,8.09
2023-03-10T05:38:39.260Z,7.81
2023-03-10T05:43:43.358Z,7.60
2023-03-10T05:48:47.744Z,8.57
2023-03-10T05:53:51.192Z,11.64
2023-03-10T05:58:58.424Z,12.58
2023-03-10T06:04:06.583Z,11.07
2023-03-10T06:09:09.773Z,10.16
2023-03-10T06:14:12.918Z,9.59
2023-03-10T06:19:16.053Z,9.14
2023-03-10T06:24:19.360Z,8.80
2023-03-10T06:29:22.604Z,8.53
2023-03-10T06:35:23.611Z,10.07
2023-03-10T06:40:26.628Z,13.03
2023-03-10T06:45:29.888Z,14.30
2023-03-10T06:50:32.971Z,13.16
2023-03-10T06:55:36.956Z,12.39
2023-03-10T07:00:40.114Z,12.02
2023-03-10T07:05:43.286Z,11.77
2023-03-10T07:10:46.509Z,11.64
2023-03-10T07:15:49.661Z,11.57
2023-03-10T07:20:54.451Z,11.55
2023-03-10T07:25:57.908Z,11.57
2023-03-10T07:31:12.354Z,11.62
2023-03-10T07:36:18.691Z,11.69
2023-03-10T07:41:22.992Z,11.80
2023-03-10T07:46:26.193Z,11.92
2023-03-10T07:51:29.284Z,12.06
2023-03-10T07:56:32.367Z,12.23
2023-03-10T08:01:35.574Z,12.40
2023-03-10T08:06:38.749Z,12.59
2023-03-10T08:11:41.865Z,12.79
2023-03-10T08:16:44.974Z,13.01
2023-03-10T08:21:48.489Z,13.23
2023-03-10T08:26:51.685Z,13.46
2023-03-10T08:31:54.890Z,13.71
2023-03-10T08:36:59.351Z,13.98
2023-03-10T08:42:02.518Z,14.25
2023-03-10T08:47:06.333Z,14.48
2023-03-10T08:52:09.558Z,14.68
2023-03-10T08:57:12.607Z,14.92
2023-03-10T09:02:15.754Z,15.15
2023-03-10T09:07:19.250Z,15.37
2023-03-10T09:12:22.383Z,15.60
2023-03-10T09:17:25.393Z,15.72
2023-03-10T09:22:28.621Z,15.77
2023-03-10T09:27:32.111Z,15.79
2023-03-10T09:32:35.275Z,15.82
2023-03-10T09:37:38.669Z,15.84
2023-03-10T09:43:00.124Z,15.88
2023-03-10T09:48:13.821Z,15.98
2023-03-10T09:53:36.263Z,16.08
2023-03-10T09:58:45.880Z,16.19
2023-03-10T10:18:38.328Z,16.53
2023-03-10T10:23:47.909Z,16.65
2023-03-10T10:29:00.345Z,16.90
2023-03-10T10:34:39.272Z,17.22
2023-03-10T10:39:43.574Z,17.53
2023-03-10T10:44:47.720Z,17.83
2023-03-10T10:49:51.074Z,18.15
2023-03-10T10:54:59.194Z,18.26
2023-03-10T11:00:28.753Z,18.29
2023-03-10T11:05:39.160Z,18.45
2023-03-10T11:10:42.817Z,18.67
2023-03-10T11:15:56.236Z,18.89
2023-03-10T11:21:12.739Z,19.01
2023-03-10T11:26:54.854Z,19.08
2023-03-10T11:32:09.730Z,19.12
2023-03-10T11:37:25.242Z,19.17
2023-03-10T11:42:34.138Z,19.15
2023-03-10T11:47:43.385Z,19.18
2023-03-10T11:52:49.913Z,19.24
2023-03-10T11:57:57.717Z,19.45
2023-03-10T12:03:19.849Z,19.61
2023-03-10T12:08:25.803Z,19.77
2023-03-10T12:13:41.049Z,19.96
2023-03-10T12:18:44.386Z,20.12
2023-03-10T12:23:50.815Z,20.14
2023-03-10T12:29:22.221Z,20.23
2023-03-10T12:34:32.539Z,20.35
2023-03-10T12:39:39.454Z,20.34
2023-03-10T12:44:48.614Z,20.35
2023-03-10T12:50:03.416Z,20.36
2023-03-10T12:55:27.981Z,20.36
2023-03-10T13:00:45.030Z,20.33
2023-03-10T13:06:15.445Z,20.27
2023-03-10T13:11:18.864Z,20.34
2023-03-10T13:16:22.692Z,20.42
2023-03-10T13:21:31.242Z,20.49
2023-03-10T13:26:37.051Z,20.61
2023-03-10T13:31:40.663Z,20.69
2023-03-10T13:36:44.314Z,20.76
2023-03-10T13:41:50.731Z,20.92
2023-03-10T13:46:57.255Z,20.93
2023-03-10T13:52:10.218Z,20.74
2023-03-10T13:57:19.873Z,20.33
2023-03-10T14:02:36.292Z,19.95
2023-03-10T14:07:40.730Z,19.64
2023-03-10T14:12:47.270Z,19.41
2023-03-10T14:18:20.557Z,19.24
2023-03-10T14:23:28.026Z,19.10
2023-03-10T14:28:49.702Z,18.98
2023-03-10T14:33:53.350Z,18.91
2023-03-10T14:38:56.924Z,18.86
2023-03-10T14:44:01.448Z,18.78
2023-03-10T14:49:08.520Z,18.66
2023-03-10T14:54:18.999Z,18.57
2023-03-10T14:59:22.462Z,18.51
2023-03-10T15:04:25.827Z,18.48
2023-03-10T15:09:29.120Z,18.46
2023-03-10T15:14:32.470Z,18.43
2023-03-10T15:19:36.214Z,18.39
2023-03-10T15:24:39.787Z,18.39
2023-03-10T15:29:43.255Z,18.34
2023-03-10T15:34:46.662Z,18.30
2023-03-10T15:39:50.310Z,18.30
2023-03-10T15:44:53.998Z,18.27
2023-03-10T15:49:57.956Z,18.22
2023-03-10T15:55:01.800Z,18.16
2023-03-10T16:00:06.023Z,18.10
2023-03-10T16:05:14.859Z,18.04
2023-03-10T16:10:21.146Z,17.97
2023-03-10T16:15:27.790Z,17.90
2023-03-10T16:20:31.460Z,17.83
2023-03-10T16:25:34.916Z,17.73
2023-03-10T16:35:39.068Z,17.56
2023-03-10T16:40:50.450Z,17.51
2023-03-10T16:45:53.828Z,17.47
2023-03-10T16:50:57.337Z,17.42
2023-03-10T16:56:04.567Z,17.36
2023-03-10T17:01:08.064Z,17.32
2023-03-10T17:06:14.262Z,17.28
2023-03-10T17:11:28.627Z,17.22
2023-03-10T17:16:33.688Z,17.17
2023-03-10T17:21:39.535Z,17.10
2023-03-10T17:26:43.273Z,17.03
2023-03-10T17:31:50.919Z,16.94
2023-03-10T17:36:54.550Z,16.75
2023-03-10T17:41:58.130Z,16.46
2023-03-10T17:47:01.641Z,16.12
2023-03-10T17:52:06.515Z,15.81
2023-03-10T17:57:10.128Z,15.50
2023-03-10T18:02:13.695Z,15.21
2023-03-10T18:07:17.397Z,15.03
2023-03-10T18:12:22.192Z,14.89
2023-03-10T18:17:27.086Z,14.77
2023-03-10T18:22:30.418Z,14.66
2023-03-10T18:27:34.907Z,14.56
2023-03-10T18:32:38.515Z,14.40
2023-03-10T18:37:42.113Z,14.25
2023-03-10T18:42:45.721Z,14.11
2023-03-10T18:47:49.248Z,14.02
2023-03-10T18:52:53.232Z,13.94
2023-03-10T18:57:57.178Z,13.84
2023-03-10T19:03:00.977Z,13.70
2023-03-10T19:08:04.872Z,13.60
2023-03-10T19:13:11.941Z,13.55
2023-03-10T19:18:18.635Z,13.52
2023-03-10T19:23:22.967Z,13.53
2023-03-10T19:28:26.491Z,13.53
2023-03-10T19:33:30.171Z,13.52
2023-03-10T19:38:37.745Z,13.50
2023-03-10T19:43:42.342Z,13.49
2023-03-10T19:48:46.541Z,13.49
2023-03-10T19:53:52.717Z,13.49
2023-03-10T19:58:57.421Z,13.48
2023-03-10T20:04:03.204Z,13.48
2023-03-10T20:09:10.778Z,13.48
2023-03-10T20:14:14.493Z,13.52
2023-03-10T20:19:19.785Z,13.53
2023-03-10T20:24:23.487Z,13.54
2023-03-10T20:35:29.237Z,13.50
2023-03-10T20:40:33.078Z,13.46
2023-03-10T20:45:37.441Z,13.44
2023-03-10T20:50:41.365Z,13.46
2023-03-10T20:55:45.140Z,13.46
2023-03-10T21:00:48.946Z,13.46
2023-03-10T21:05:54.156Z,13.46
2023-03-10T21:10:57.841Z,13.45
2023-03-10T21:16:01.386Z,13.45
2023-03-10T21:21:09.817Z,13.44
2023-03-10T21:26:21.172Z,13.41
2023-03-10T21:31:24.644Z,13.38
2023-03-10T21:36:28.189Z,13.36
2023-03-10T21:41:31.971Z,13.34
2023-03-10T21:46:36.102Z,13.31
2023-03-10T21:51:39.754Z,13.28
2023-03-10T21:56:43.398Z,13.24
2023-03-10T22:01:47.316Z,13.20
2023-03-10T22:06:50.651Z,13.17
2023-03-10T22:11:54.225Z,13.14
2023-03-10T22:16:57.856Z,13.14
2023-03-10T22:22:02.812Z,13.14
2023-03-10T22:27:06.582Z,13.11
2023-03-10T22:35:19.274Z,13.08
2023-03-10T22:40:25.447Z,13.05
2023-03-10T22:45:31.621Z,13.05
2023-03-10T22:50:39.036Z,13.04
2023-03-10T22:55:44.031Z,13.01
2023-03-10T23:00:47.672Z,12.99
2023-03-10T23:06:03.591Z,12.97
2023-03-10T23:11:12.019Z,12.97
2023-03-10T23:16:18.298Z,12.97
2023-03-10T23:21:22.289Z,12.97
2023-03-10T23:26:27.479Z,12.97
2023-03-10T23:31:30.846Z,12.97
2023-03-10T23:36:34.756Z,12.98
2023-03-10T23:41:38.461Z,12.98
2023-03-10T23:46:42.436Z,12.97
2023-03-10T23:51:46.194Z,12.96
2023-03-10T23:56:51.525Z,12.97
